Time;durP1;ratioP1;P1;durP2;ratioP2;P2;SDS_P1;SDS_P2;PMS_P1;PMS_P2;Temp;Humidity;BMP_temperature;BMP_pressure;BME280_temperature;BME280_humidity;BME280_pressure;Samples;Min_cycle;Max_cycle;Signal;HPM_P1;HPM_P2
2022/08/23 00:01:31;;;;;;;27.83;16.15;;;;;;;18.62;81.25;93436.94;5063941;28;20059;-74
2022/08/23 00:04:02;;;;;;;24.70;15.00;;;;;;;18.65;80.95;93430.00;5064049;28;20254;-74
2022/08/23 00:06:28;;;;;;;25.27;14.27;;;;;;;18.67;80.98;93437.72;5063864;28;20212;-74
2022/08/23 00:08:54;;;;;;;25.15;14.90;;;;;;;18.69;80.90;93441.59;5063739;28;20092;-74
2022/08/23 00:11:47;;;;;;;24.67;15.50;;;;;;;18.73;80.46;93455.13;5063938;28;20032;-74
2022/08/23 00:14:26;;;;;;;26.17;15.63;;;;;;;18.73;80.42;93453.19;5061276;28;20029;-74
2022/08/23 00:16:52;;;;;;;26.55;15.07;;;;;;;18.75;80.33;93453.59;5063957;28;20246;-74
2022/08/23 00:19:19;;;;;;;25.05;16.55;;;;;;;18.80;80.47;93453.25;5063651;28;20028;-74
2022/08/23 00:21:46;;;;;;;26.92;15.88;;;;;;;18.84;80.50;93453.28;5063628;28;20032;-74
2022/08/23 00:24:13;;;;;;;25.10;15.25;;;;;;;18.88;80.85;93443.28;5063643;28;20092;-74
2022/08/23 00:26:50;;;;;;;28.00;16.27;;;;;;;18.91;80.52;93442.56;5063677;28;20036;-74
2022/08/23 00:29:17;;;;;;;25.85;15.73;;;;;;;18.86;80.51;93442.91;5063282;28;20345;-74
2022/08/23 00:31:42;;;;;;;24.30;16.20;;;;;;;18.86;80.44;93440.19;5063526;28;20088;-74
2022/08/23 00:34:07;;;;;;;21.13;14.70;;;;;;;18.85;80.41;93435.97;5063483;28;20032;-74
2022/08/23 00:36:33;;;;;;;23.08;12.88;;;;;;;18.84;80.42;93445.19;5063517;28;20027;-75
2022/08/23 00:38:58;;;;;;;23.80;14.38;;;;;;;18.87;80.05;93452.56;5063181;28;20025;-74
2022/08/23 00:41:25;;;;;;;19.13;14.65;;;;;;;18.88;80.03;93442.53;5063419;28;20088;-74
2022/08/23 00:49:42;;;;;;;23.65;13.05;;;;;;;18.84;79.86;93427.06;5062871;28;20134;-74
2022/08/23 00:52:23;;;;;;;20.67;13.00;;;;;;;18.84;79.77;93434.41;5063287;28;20051;-74
2022/08/23 00:54:51;;;;;;;18.38;12.45;;;;;;;18.84;79.15;93437.09;5063096;28;20052;-74
2022/08/23 00:57:18;;;;;;;18.63;12.02;;;;;;;18.80;78.89;93439.00;5062911;28;20028;-74
2022/08/23 00:59:44;;;;;;;18.98;11.50;;;;;;;18.77;79.27;93443.19;5063041;28;20337;-74
2022/08/23 01:02:11;;;;;;;25.58;11.90;;;;;;;18.73;79.51;93444.34;5063069;28;20282;-74
2022/08/23 01:04:47;;;;;;;19.85;13.30;;;;;;;18.70;79.78;93439.66;5063074;28;20017;-74
2022/08/23 01:07:28;;;;;;;19.10;12.50;;;;;;;18.69;80.21;93446.22;5062840;28;20254;-75
2022/08/23 01:09:59;;;;;;;28.95;12.93;;;;;;;18.68;80.46;93445.44;5062904;28;20093;-74
2022/08/23 01:12:35;;;;;;;20.60;11.90;;;;;;;18.65;80.47;93449.66;5062892;28;20021;-74
2022/08/23 01:15:11;;;;;;;19.88;11.93;;;;;;;18.65;80.41;93446.97;5062635;28;20315;-74
2022/08/23 01:17:49;;;;;;;19.58;12.93;;;;;;;18.67;80.71;93448.53;5062912;28;20025;-74
2022/08/23 01:20:18;;;;;;;19.90;12.13;;;;;;;18.63;80.48;93448.50;5062638;28;20043;-74
2022/08/23 01:23:06;;;;;;;21.55;11.70;;;;;;;18.62;80.43;93455.81;5062732;28;20021;-74
2022/08/23 01:25:32;;;;;;;23.42;11.55;;;;;;;18.60;80.65;93458.13;5062819;28;20041;-74
2022/08/23 01:27:59;;;;;;;18.83;11.70;;;;;;;18.67;80.37;93456.63;5062573;28;20445;-74
2022/08/23 01:30:31;;;;;;;15.40;11.05;;;;;;;18.65;80.46;93452.34;5062433;28;20020;-75
2022/08/23 01:32:57;;;;;;;;;;;;;;;18.68;80.54;93455.47;5063066;28;20243;-74
2022/08/23 01:35:38;;;;;;;17.48;11.73;;;;;;;18.60;80.88;93455.41;5062638;28;20076;-74
2022/08/23 01:38:05;;;;;;;21.55;11.93;;;;;;;18.59;81.10;93448.44;5062663;28;20017;-75
2022/08/23 01:40:31;;;;;;;21.60;11.60;;;;;;;18.61;81.00;93445.38;5062484;28;20013;-75
2022/08/23 01:42:57;;;;;;;15.98;11.85;;;;;;;18.59;80.62;93451.16;5062526;28;20028;-74
2022/08/23 01:45:23;;;;;;;16.73;12.25;;;;;;;18.59;81.10;93437.66;5062500;28;20017;-75
2022/08/23 01:47:48;;;;;;;24.98;12.45;;;;;;;18.65;81.02;93455.06;5061377;28;20031;-75
2022/08/23 01:50:14;;;;;;;24.45;12.88;;;;;;;18.67;81.00;93454.69;5062334;28;20029;-72
2022/08/23 01:52:41;;;;;;;24.52;13.07;;;;;;;18.72;81.37;93458.97;5062200;28;20025;-73
2022/08/23 01:55:07;;;;;;;20.75;11.80;;;;;;;18.74;81.15;93456.66;5062398;28;20024;-75
2022/08/23 01:57:33;;;;;;;22.13;12.55;;;;;;;18.79;81.34;93451.72;5062312;28;20227;-74
2022/08/23 01:59:59;;;;;;;21.10;12.50;;;;;;;18.82;81.39;93445.56;5062325;28;20108;-73
2022/08/23 02:02:25;;;;;;;21.42;12.88;;;;;;;18.84;81.19;93456.00;5062197;28;20044;-74
2022/08/23 02:04:51;;;;;;;17.35;12.07;;;;;;;18.87;81.38;93444.47;5062203;28;20334;-73
2022/08/23 02:07:17;;;;;;;20.38;12.43;;;;;;;18.86;81.11;93431.31;5062169;28;20025;-73
2022/08/23 02:09:42;;;;;;;19.00;12.15;;;;;;;18.88;80.60;93439.81;5062190;28;20020;-72
2022/08/23 02:12:07;;;;;;;20.52;12.88;;;;;;;18.92;80.15;93438.69;5062390;28;20059;-72
2022/08/23 02:14:33;;;;;;;16.73;11.88;;;;;;;18.93;80.00;93442.97;5062800;28;20044;-73
2022/08/23 02:16:59;;;;;;;17.95;11.43;;;;;;;18.95;79.27;93440.66;5065988;28;20025;-73
2022/08/23 02:19:25;;;;;;;24.38;11.93;;;;;;;18.99;78.65;93433.34;5065861;28;20021;-73
2022/08/23 02:21:50;;;;;;;17.85;11.27;;;;;;;19.00;77.96;93429.47;5065950;28;20028;-72
2022/08/23 02:24:20;;;;;;;17.17;11.48;;;;;;;19.04;77.57;93438.38;5065849;28;20021;-72
2022/08/23 02:26:50;;;;;;;16.73;10.65;;;;;;;19.08;77.26;93437.66;5065898;28;20021;-73
2022/08/23 02:29:19;;;;;;;19.92;10.32;;;;;;;19.10;77.14;93433.41;5065785;28;20350;-72
2022/08/23 02:31:45;;;;;;;14.90;8.82;;;;;;;19.10;75.99;93428.00;5065481;28;20027;-72
2022/08/23 02:34:11;;;;;;;12.85;8.82;;;;;;;19.14;74.47;93423.41;5065672;28;20049;-72
2022/08/23 02:36:37;;;;;;;11.20;8.10;;;;;;;19.18;73.64;93420.72;5065930;28;20043;-72
2022/08/23 02:39:05;;;;;;;11.32;6.97;;;;;;;19.21;72.62;93414.56;5065558;28;20080;-72
2022/08/23 02:41:30;;;;;;;9.50;7.72;;;;;;;19.27;72.40;93410.34;5065569;28;20039;-72
2022/08/23 02:43:56;;;;;;;10.75;7.82;;;;;;;19.32;72.77;93417.31;5065513;28;20227;-72
2022/08/23 02:46:22;;;;;;;11.52;7.88;;;;;;;19.36;72.62;93418.88;5065469;28;20058;-72
2022/08/23 02:48:48;;;;;;;16.20;8.38;;;;;;;19.38;72.65;93416.56;5065296;28;20035;-72
2022/08/23 02:51:15;;;;;;;12.13;8.63;;;;;;;19.39;73.17;93420.81;5065250;28;20331;-72
2022/08/23 02:53:41;;;;;;;15.50;9.18;;;;;;;19.36;73.88;93421.59;5065200;28;20246;-72
2022/08/23 02:56:07;;;;;;;14.25;9.57;;;;;;;19.33;75.02;93422.31;5065403;28;20025;-72
2022/08/23 02:58:33;;;;;;;17.33;11.02;;;;;;;19.26;75.42;93425.00;5065195;28;20043;-72
2022/08/23 03:00:58;;;;;;;15.88;10.20;;;;;;;19.20;75.66;93421.88;5065026;28;20235;-72
2022/08/23 03:03:24;;;;;;;16.85;10.73;;;;;;;19.15;75.85;93424.97;5065191;28;20040;-72
2022/08/23 03:05:51;;;;;;;15.05;10.90;;;;;;;19.09;76.00;93421.06;5065050;28;20066;-72
2022/08/23 03:08:17;;;;;;;16.50;9.95;;;;;;;19.07;75.64;93411.78;5064975;28;20212;-72
2022/08/23 03:10:45;;;;;;;11.70;8.38;;;;;;;19.04;75.31;93414.06;5064966;28;20081;-72
2022/08/23 03:13:11;;;;;;;15.18;8.32;;;;;;;19.02;75.00;93407.50;5064845;28;20039;-72
2022/08/23 03:15:37;;;;;;;15.55;8.68;;;;;;;18.99;74.77;93400.94;5065025;28;20032;-74
2022/08/23 03:18:03;;;;;;;12.57;8.35;;;;;;;18.98;74.79;93409.41;5064893;28;20025;-73
2022/08/23 03:20:28;;;;;;;12.25;7.03;;;;;;;18.99;74.84;93409.03;5064815;28;20247;-73
2022/08/23 03:22:54;;;;;;;14.82;8.98;;;;;;;19.02;73.94;93402.88;5064725;28;20087;-73
2022/08/23 03:25:20;;;;;;;9.10;7.38;;;;;;;19.08;73.07;93402.53;5064553;28;20025;-73
2022/08/23 03:27:45;;;;;;;9.00;6.88;;;;;;;19.13;72.16;93400.25;5063717;28;20043;-72
2022/08/23 03:30:11;;;;;;;13.77;7.30;;;;;;;19.21;71.34;93420.75;5064670;28;20128;-73
2022/08/23 03:32:37;;;;;;;11.88;6.35;;;;;;;19.28;71.24;93421.94;5064774;28;20099;-73
2022/08/23 03:35:03;;;;;;;16.48;8.02;;;;;;;19.33;71.38;93424.25;5064352;28;20028;-73
2022/08/23 03:37:29;;;;;;;14.15;6.25;;;;;;;19.35;71.99;93411.91;5064579;28;20212;-73
2022/08/23 03:39:54;;;;;;;11.80;6.80;;;;;;;19.37;71.85;93415.00;5064367;28;20027;-73
2022/08/23 03:42:20;;;;;;;6.22;4.65;;;;;;;19.38;70.32;93427.38;5064499;28;20025;-73
2022/08/23 03:44:45;;;;;;;8.75;4.13;;;;;;;19.40;67.70;93429.72;5062998;28;20193;-73
2022/08/23 03:47:11;;;;;;;8.73;4.13;;;;;;;19.44;67.12;93431.28;5064436;28;20032;-73
2022/08/23 03:49:37;;;;;;;8.13;4.38;;;;;;;19.50;66.86;93441.72;5064202;28;20075;-73
2022/08/23 03:52:04;;;;;;;6.70;3.90;;;;;;;19.50;66.21;93442.50;5064242;28;20016;-72
2022/08/23 03:54:30;;;;;;;6.13;4.20;;;;;;;19.54;66.43;93447.91;5063999;28;20021;-73
2022/08/23 03:56:59;;;;;;;7.57;4.00;;;;;;;19.58;66.39;93451.41;5064177;28;20027;-73
2022/08/23 03:59:26;;;;;;;10.43;4.45;;;;;;;19.63;66.40;93461.84;5062907;28;20021;-73
2022/08/23 04:01:52;;;;;;;7.50;4.70;;;;;;;19.67;66.75;93468.06;5063882;28;20342;-73
2022/08/23 04:04:18;;;;;;;9.82;4.22;;;;;;;19.66;66.38;93469.19;5063804;28;20013;-72
2022/08/23 04:06:46;;;;;;;6.47;4.30;;;;;;;19.64;66.60;93483.13;5063972;28;20088;-72
2022/08/23 04:09:13;;;;;;;11.15;3.85;;;;;;;19.67;66.21;93491.63;5064012;28;20021;-73
2022/08/23 04:11:38;;;;;;;12.82;5.32;;;;;;;19.64;66.38;93503.94;5063418;28;20017;-74
2022/08/23 04:14:05;;;;;;;17.35;8.20;;;;;;;19.49;71.28;93502.34;5063979;28;20083;-74
2022/08/23 04:16:36;;;;;;;11.60;8.05;;;;;;;19.32;72.72;93507.25;5063706;28;20063;-74
2022/08/23 04:19:03;;;;;;;15.77;9.85;;;;;;;19.11;74.59;93501.69;5063562;28;20215;-75
2022/08/23 04:21:29;;;;;;;19.77;11.00;;;;;;;18.91;75.55;93511.97;5063605;28;20028;-74
2022/08/23 04:23:55;;;;;;;17.35;10.50;;;;;;;18.72;76.56;93510.25;5063608;28;20034;-74
2022/08/23 04:26:21;;;;;;;17.05;10.52;;;;;;;18.67;77.30;93514.06;5063551;28;20021;-75
2022/08/23 04:28:46;;;;;;;18.67;11.80;;;;;;;18.56;77.59;93510.50;5063345;28;20028;-73
2022/08/23 04:31:12;;;;;;;20.27;11.43;;;;;;;18.47;77.99;93516.19;5063352;28;20096;-73
2022/08/23 04:33:38;;;;;;;18.83;10.77;;;;;;;18.34;77.91;93525.69;5063146;28;20037;-73
2022/08/23 04:36:04;;;;;;;17.45;11.23;;;;;;;18.35;78.33;93521.88;5063461;28;20086;-73
2022/08/23 04:38:29;;;;;;;20.92;11.93;;;;;;;18.33;78.24;93518.75;5063055;28;20028;-73
2022/08/23 04:43:41;;;;;;;18.38;12.85;;;;;;;18.33;78.09;93516.06;5063125;28;20380;-72
2022/08/23 04:46:07;;;;;;;27.00;13.55;;;;;;;18.34;78.62;93520.28;5063135;28;20021;-72
2022/08/23 04:48:32;;;;;;;23.15;13.40;;;;;;;18.30;78.74;93530.28;5062983;28;20236;-73
2022/08/23 04:50:58;;;;;;;23.15;13.75;;;;;;;18.32;78.94;93522.59;5062902;28;20052;-73
2022/08/23 04:53:24;;;;;;;25.02;14.63;;;;;;;18.31;79.15;93529.16;5063066;28;20033;-74
2022/08/23 04:55:51;;;;;;;23.42;14.00;;;;;;;18.25;79.17;93531.38;5062893;28;20127;-74
2022/08/23 04:58:17;;;;;;;21.73;13.30;;;;;;;18.28;79.75;93527.16;5063001;28;20036;-73
2022/08/23 05:00:43;;;;;;;28.70;14.63;;;;;;;18.31;80.10;93540.72;5063012;28;20032;-73
2022/08/23 05:03:08;;;;;;;29.25;13.93;;;;;;;18.32;79.66;93528.78;5062796;28;20093;-74
2022/08/23 05:05:34;;;;;;;26.35;15.10;;;;;;;18.39;78.95;93536.16;5062803;28;20088;-74
2022/08/23 05:07:59;;;;;;;30.00;14.10;;;;;;;18.40;78.86;93545.81;5063016;28;20252;-73
2022/08/23 05:10:25;;;;;;;26.20;13.90;;;;;;;18.47;78.76;93540.50;5062813;28;20346;-73
2022/08/23 05:12:50;;;;;;;17.23;13.95;;;;;;;18.55;79.17;93552.91;5062579;28;20092;-73
2022/08/23 05:15:16;;;;;;;22.58;12.90;;;;;;;18.61;78.15;93553.34;5062520;28;20044;-74
2022/08/23 05:17:42;;;;;;;24.58;13.35;;;;;;;18.70;78.07;93553.81;5062591;28;20032;-73
2022/08/23 05:20:09;;;;;;;19.15;13.57;;;;;;;18.78;77.36;93550.03;5062956;28;20025;-73
2022/08/23 05:22:37;;;;;;;23.35;14.00;;;;;;;18.88;77.07;93566.72;5062629;28;20025;-73
2022/08/23 05:25:06;;;;;;;24.55;14.35;;;;;;;18.97;76.99;93567.97;5062584;28;20319;-73
2022/08/23 05:27:31;;;;;;;22.33;14.07;;;;;;;19.03;77.08;93566.50;5062543;28;20036;-73
2022/08/23 05:29:57;;;;;;;23.92;13.40;;;;;;;19.13;76.68;93573.13;5061184;28;20219;-73
2022/08/23 05:32:22;;;;;;;19.67;13.40;;;;;;;19.24;76.19;93562.41;5062369;28;20044;-73
2022/08/23 05:34:48;;;;;;;20.55;14.65;;;;;;;19.34;76.18;93561.69;5062584;28;20012;-73
2022/08/23 05:37:14;;;;;;;24.90;15.30;;;;;;;19.43;75.51;93559.44;5062533;28;20013;-73
2022/08/23 05:39:41;;;;;;;22.27;16.27;;;;;;;19.52;75.67;93561.03;5062391;28;20021;-73
2022/08/23 05:42:09;;;;;;;31.10;17.63;;;;;;;19.54;75.24;93558.72;5062428;28;20021;-73
2022/08/23 05:44:35;;;;;;;27.27;16.90;;;;;;;19.61;75.11;93569.59;5060899;28;20323;-73
2022/08/23 05:47:00;;;;;;;30.02;19.33;;;;;;;19.58;75.44;93567.63;5062308;28;20284;-72
2022/08/23 05:49:26;;;;;;;34.95;20.17;;;;;;;19.62;76.05;93563.00;5062682;28;20084;-73
2022/08/23 05:51:51;;;;;;;35.90;20.08;;;;;;;19.65;75.19;93570.38;5066313;28;20219;-73
2022/08/23 05:54:17;;;;;;;33.40;20.60;;;;;;;19.69;75.26;93565.78;5066238;28;20051;-74
2022/08/23 05:56:43;;;;;;;30.42;18.20;;;;;;;19.73;75.42;93566.59;5066426;28;20023;-73
2022/08/23 05:59:11;;;;;;;32.53;17.67;;;;;;;19.82;73.80;93571.66;5066150;28;20020;-74
2022/08/23 06:01:38;;;;;;;36.63;18.88;;;;;;;19.84;73.51;93570.16;5066397;28;20040;-74
2022/08/23 06:04:05;;;;;;;28.20;17.63;;;;;;;19.83;73.73;93575.94;5066296;28;20025;-73
2022/08/23 06:06:31;;;;;;;28.65;17.83;;;;;;;19.80;73.71;93577.47;5066140;28;20096;-74
2022/08/23 06:08:57;;;;;;;24.55;16.10;;;;;;;19.93;74.22;93579.84;5066075;28;20083;-75
2022/08/23 06:11:26;;;;;;;25.65;16.02;;;;;;;20.02;73.19;93582.97;5066218;28;20048;-74
2022/08/23 06:13:54;;;;;;;25.30;15.55;;;;;;;20.10;72.14;93581.06;5065924;28;20053;-74
2022/08/23 06:16:25;;;;;;;25.92;15.63;;;;;;;20.07;72.85;93585.31;5065804;28;20078;-75
2022/08/23 06:18:52;;;;;;;23.00;15.40;;;;;;;20.06;73.37;93583.75;5065967;28;20047;-75
2022/08/23 06:21:18;;;;;;;24.77;14.45;;;;;;;20.05;73.16;93593.03;5065926;28;20048;-76
2022/08/23 06:23:46;;;;;;;22.48;14.63;;;;;;;19.97;73.55;93583.34;5065690;28;20017;-75
2022/08/23 06:26:39;;;;;;;25.85;15.10;;;;;;;19.98;74.18;93590.28;5065426;28;20052;-74
2022/08/23 06:29:08;;;;;;;24.55;15.98;;;;;;;19.97;73.51;93602.28;5065947;28;20028;-77
2022/08/23 06:31:46;;;;;;;26.42;17.33;;;;;;;19.95;73.61;93601.88;5066138;28;20047;-81
2022/08/23 06:34:19;;;;;;;22.13;14.40;;;;;;;19.93;73.60;93602.25;5066166;28;20032;-84
2022/08/23 06:36:47;;;;;;;22.67;14.75;;;;;;;19.93;73.66;93596.84;5065915;28;20020;-78
2022/08/23 06:39:14;;;;;;;30.40;14.80;;;;;;;19.92;73.29;93594.50;5065834;28;20032;-76
2022/08/23 06:41:40;;;;;;;22.13;16.02;;;;;;;19.88;73.90;93599.13;5066131;28;20028;-80
2022/08/23 06:44:07;;;;;;;25.92;15.73;;;;;;;19.96;74.36;93606.13;5066237;28;20020;-81
2022/08/23 06:46:33;;;;;;;21.92;15.00;;;;;;;20.12;73.95;93614.72;5065694;28;20044;-80
2022/08/23 06:49:00;;;;;;;27.17;16.00;;;;;;;20.15;72.04;93613.97;5065509;28;20037;-80
2022/08/23 06:51:47;;;;;;;23.27;16.33;;;;;;;20.33;71.33;93621.38;5065140;28;20083;-80
2022/08/23 06:54:14;;;;;;;24.58;15.93;;;;;;;20.44;71.50;93614.06;5065684;28;20037;-79
2022/08/23 06:56:41;;;;;;;27.27;16.90;;;;;;;20.58;70.86;93618.78;5066020;28;20020;-80
2022/08/23 06:59:07;;;;;;;29.08;15.60;;;;;;;20.68;70.71;93612.63;5065845;28;20074;-81
2022/08/23 07:01:41;;;;;;;23.83;16.27;;;;;;;20.74;70.69;93607.59;5065618;28;20017;-81
2022/08/23 07:04:09;;;;;;;23.05;16.05;;;;;;;20.77;70.62;93607.63;5065954;28;20084;-84
2022/08/23 07:06:36;;;;;;;26.23;16.15;;;;;;;20.81;69.95;93611.09;5066010;28;20017;-83
2022/08/23 07:09:04;;;;;;;21.80;15.15;;;;;;;20.91;69.58;93616.94;5065655;28;20016;-81
2022/08/23 07:11:31;;;;;;;25.88;16.70;;;;;;;21.00;69.66;93620.84;5065997;28;20028;-88
2022/08/23 07:13:59;;;;;;;22.17;15.30;;;;;;;20.94;68.99;93608.81;5064593;28;20099;-88
2022/08/23 07:16:25;;;;;;;27.38;16.33;;;;;;;20.95;68.66;93610.38;5066024;28;20207;-87
2022/08/23 07:18:54;;;;;;;23.15;15.00;;;;;;;21.07;69.46;93619.28;5065885;28;20021;-82
2022/08/23 07:21:20;;;;;;;23.10;14.73;;;;;;;21.16;67.38;93611.53;5065213;28;20062;-90
2022/08/23 07:23:48;;;;;;;22.02;14.90;;;;;;;21.16;67.03;93608.84;5065243;28;20037;-87
2022/08/23 07:26:15;;;;;;;19.52;12.82;;;;;;;21.11;67.35;93617.38;5064121;28;20025;-87
2022/08/23 07:28:42;;;;;;;21.02;13.32;;;;;;;21.12;67.12;93610.78;5065317;28;20024;-84
2022/08/23 07:31:10;;;;;;;24.70;14.02;;;;;;;21.14;67.02;93620.06;5065597;28;20021;-86
2022/08/23 07:33:37;;;;;;;26.27;14.52;;;;;;;21.12;66.80;93613.47;5065310;28;20208;-84
2022/08/23 07:36:03;;;;;;;20.73;14.02;;;;;;;21.08;67.17;93615.41;5065492;28;20020;-88
2022/08/23 07:38:28;;;;;;;22.25;13.88;;;;;;;21.13;67.94;93617.75;5064085;28;20036;-85
2022/08/23 07:40:54;;;;;;;21.20;14.07;;;;;;;21.20;67.61;93625.88;5064046;28;20255;-88
2022/08/23 07:43:19;;;;;;;22.05;14.48;;;;;;;21.29;67.46;93620.06;5065428;28;20312;-91
2022/08/23 07:45:47;;;;;;;21.77;14.02;;;;;;;21.43;66.79;93625.50;5064312;28;20032;-85
2022/08/23 07:48:13;;;;;;;20.83;14.40;;;;;;;21.64;66.51;93622.81;5064899;28;20028;-84
2022/08/23 07:50:39;;;;;;;22.75;13.90;;;;;;;21.82;65.10;93617.38;5063464;28;20036;-84
2022/08/23 07:53:06;;;;;;;22.05;13.10;;;;;;;21.95;63.98;93622.38;5065124;28;20306;-85
2022/08/23 07:55:32;;;;;;;20.70;13.40;;;;;;;22.02;64.14;93619.63;5064794;28;20258;-83
2022/08/23 07:57:57;;;;;;;18.65;12.65;;;;;;;22.03;63.88;93626.63;5064604;28;20025;-83
2022/08/23 08:00:23;;;;;;;21.75;13.50;;;;;;;22.14;63.39;93635.50;5064572;28;20075;-82
2022/08/23 08:02:48;;;;;;;27.73;13.43;;;;;;;22.23;62.81;93635.09;5063235;28;20044;-82
2022/08/23 08:05:13;;;;;;;19.60;12.05;;;;;;;22.35;63.23;93632.00;5064933;28;20322;-86
2022/08/23 08:07:39;;;;;;;22.77;13.57;;;;;;;22.51;62.20;93636.97;5064545;28;20040;-88
2022/08/23 08:10:05;;;;;;;22.10;13.95;;;;;;;22.52;61.73;93632.31;5064399;28;20032;-86
2022/08/23 08:12:32;;;;;;;20.35;13.25;;;;;;;22.49;61.68;93639.31;5063521;28;20064;-85
2022/08/23 08:14:57;;;;;;;18.52;12.15;;;;;;;22.52;61.42;93645.91;5064354;28;20044;-82
2022/08/23 08:17:23;;;;;;;19.20;12.35;;;;;;;22.55;62.09;93648.59;5064401;28;20315;-83
2022/08/23 08:19:48;;;;;;;17.58;12.63;;;;;;;22.68;62.35;93640.00;5064391;28;20025;-84
2022/08/23 08:22:14;;;;;;;22.77;13.88;;;;;;;22.89;61.32;93658.13;5062587;28;20028;-89
2022/08/23 08:24:39;;;;;;;20.90;13.02;;;;;;;23.10;60.94;93658.06;5064375;28;20013;-82
2022/08/23 08:27:05;;;;;;;19.40;13.07;;;;;;;23.16;59.63;93661.13;5063946;28;20021;-82
2022/08/23 08:29:31;;;;;;;20.35;13.35;;;;;;;23.10;59.32;93652.63;5063989;28;20023;-86
2022/08/23 08:31:56;;;;;;;24.98;13.63;;;;;;;22.81;60.66;93658.16;5064502;28;20092;-86
2022/08/23 08:34:22;;;;;;;18.40;13.10;;;;;;;22.90;59.79;93657.75;5063080;28;20029;-88
2022/08/23 08:37:06;;;;;;;18.45;12.63;;;;;;;22.93;59.73;93664.34;5063442;28;20017;-88
2022/08/23 08:39:32;;;;;;;23.75;13.57;;;;;;;22.91;59.74;93667.44;5064381;28;20052;-88
2022/08/23 08:42:17;;;;;;;18.10;12.20;;;;;;;23.00;59.37;93654.19;5065158;28;20016;-90
2022/08/23 08:44:50;;;;;;;19.88;13.20;;;;;;;23.12;59.75;93653.00;5064081;28;20040;-87
2022/08/23 08:47:15;;;;;;;;;;;;;;;23.28;60.11;93649.78;5063256;28;20382;-84
2022/08/23 08:49:54;;;;;;;20.25;13.57;;;;;;;23.29;59.09;93651.31;5064580;28;19920;-82
2022/08/23 08:52:24;;;;;;;22.98;14.52;;;;;;;23.23;59.00;93647.50;5063316;28;20028;-88
2022/08/23 08:54:56;;;;;;;19.83;13.23;;;;;;;23.20;59.00;93646.34;5064133;28;20353;-87
2022/08/23 08:57:24;;;;;;;22.88;13.43;;;;;;;23.16;60.97;93642.09;5063448;28;20027;-80
2022/08/23 09:00:00;;;;;;;24.60;14.20;;;;;;;23.20;59.59;93642.84;5063185;28;20354;-81
2022/08/23 09:02:31;;;;;;;22.65;13.68;;;;;;;23.36;59.33;93642.34;5063103;28;20047;-85
2022/08/23 09:04:57;;;;;;;24.17;14.02;;;;;;;23.51;59.10;93632.13;5063249;28;20117;-82
2022/08/23 09:08:11;;;;;;;18.38;13.05;;;;;;;23.67;58.19;93618.78;5062011;28;20033;-83
2022/08/23 09:10:49;;;;;;;20.98;12.90;;;;;;;23.78;58.31;93613.28;5062186;28;20029;-81
2022/08/23 09:13:52;;;;;;;19.30;13.00;;;;;;;23.95;57.71;93606.09;5062719;28;20035;-82
2022/08/23 09:16:36;;;;;;;21.88;11.60;;;;;;;23.91;55.27;93608.84;5063109;28;20029;-79
2022/08/23 09:19:04;;;;;;;20.85;11.88;;;;;;;23.85;56.04;93617.88;5062901;28;20029;-80
2022/08/23 09:21:45;;;;;;;15.60;12.05;;;;;;;23.85;56.75;93605.03;5061840;28;20017;-84
2022/08/23 09:24:11;;;;;;;19.75;12.18;;;;;;;23.89;55.90;93608.50;5061140;28;20114;-78
2022/08/23 09:26:36;;;;;;;15.60;11.07;;;;;;;23.93;55.96;93598.34;5062703;28;20041;-78
2022/08/23 09:29:24;;;;;;;23.88;11.75;;;;;;;24.07;56.06;93605.59;5061528;28;20028;-81
2022/08/23 09:31:57;;;;;;;19.70;11.75;;;;;;;24.16;55.79;93603.16;5062382;28;20055;-82
2022/08/23 09:34:43;;;;;;;20.75;12.95;;;;;;;24.27;55.25;93610.44;5062842;28;20025;-82
2022/08/23 09:37:21;;;;;;;19.13;12.00;;;;;;;24.25;56.31;93608.13;5062333;28;20039;-79
2022/08/23 09:40:10;;;;;;;16.02;10.90;;;;;;;24.34;56.01;93611.16;5062571;28;20025;-78
2022/08/23 09:42:38;;;;;;;19.50;11.73;;;;;;;24.43;55.60;93602.47;5062739;28;20032;-79
2022/08/23 09:45:28;;;;;;;20.80;11.50;;;;;;;24.47;55.28;93613.34;5062703;28;20346;-83
2022/08/23 09:47:53;;;;;;;17.00;11.63;;;;;;;24.43;54.99;93622.31;5062474;28;20025;-82
2022/08/23 09:50:21;;;;;;;15.25;11.02;;;;;;;24.45;54.75;93621.91;5062330;28;20060;-82
2022/08/23 09:52:49;;;;;;;20.60;12.45;;;;;;;24.41;54.67;93616.50;5062363;28;20043;-82
2022/08/23 09:55:31;;;;;;;17.23;13.00;;;;;;;24.46;54.47;93623.44;5062423;28;20069;-81
2022/08/23 09:57:59;;;;;;;15.80;11.38;;;;;;;24.51;54.18;93625.75;5062255;28;20029;-82
2022/08/23 10:00:32;;;;;;;13.80;10.82;;;;;;;24.64;53.79;93625.97;5060945;28;20066;-81
2022/08/23 10:03:18;;;;;;;16.67;11.50;;;;;;;24.71;53.59;93617.72;5062301;28;20297;-81
2022/08/23 10:05:49;;;;;;;18.77;10.95;;;;;;;24.80;53.60;93611.78;5061228;28;20021;-81
2022/08/23 10:08:24;;;;;;;18.15;11.20;;;;;;;24.83;53.21;93619.09;5062202;28;20253;-81
2022/08/23 10:10:52;;;;;;;15.18;10.38;;;;;;;24.84;54.14;93620.66;5062448;28;20024;-81
2022/08/23 10:13:19;;;;;;;14.95;11.10;;;;;;;24.87;52.97;93617.09;5062106;28;20029;-81
2022/08/23 10:15:53;;;;;;;17.95;9.50;;;;;;;24.93;52.41;93617.44;5061164;28;20032;-80
2022/08/23 10:18:30;;;;;;;17.10;9.32;;;;;;;25.03;52.37;93616.50;5062221;28;20021;-80
2022/08/23 10:21:36;;;;;;;16.00;9.02;;;;;;;25.14;51.15;93610.91;5062106;28;20032;-80
2022/08/23 10:24:21;;;;;;;18.63;9.10;;;;;;;25.19;49.70;93603.03;5061243;28;20040;-80
2022/08/23 10:29:35;;;;;;;20.52;10.38;;;;;;;25.19;49.95;93613.16;5061909;28;20028;-80
2022/08/23 10:30:04;;;;;;;16.27;10.35;;;;;;;24.97;50.20;93608.03;5062062;28;20040;-81
2022/08/23 10:32:42;;;;;;;14.73;10.50;;;;;;;24.85;50.78;93611.28;5062199;28;20059;-78
2022/08/23 10:35:13;;;;;;;15.02;9.55;;;;;;;24.74;51.33;93606.00;5062326;28;20070;-78
2022/08/23 10:38:06;;;;;;;19.33;9.77;;;;;;;24.69;50.88;93609.19;5065912;28;20029;-81
2022/08/23 10:40:50;;;;;;;14.38;8.77;;;;;;;24.67;50.91;93602.59;5065910;28;20425;-78
2022/08/23 10:43:34;;;;;;;18.60;9.63;;;;;;;24.57;53.93;93598.84;5065779;28;20020;-78
2022/08/23 10:46:01;;;;;;;12.32;9.98;;;;;;;24.48;53.73;93599.28;5065724;28;20094;-77
2022/08/23 10:48:47;;;;;;;19.33;9.70;;;;;;;24.44;54.10;93601.28;5064392;28;20020;-77
2022/08/23 10:51:26;;;;;;;14.23;9.02;;;;;;;24.41;52.89;93594.72;5065304;28;20053;-79
2022/08/23 10:54:00;;;;;;;22.88;8.65;;;;;;;24.40;52.05;93597.84;5064279;28;20028;-81
2022/08/23 10:56:27;;;;;;;16.67;9.45;;;;;;;24.41;52.85;93608.31;5065720;28;20027;-81
2022/08/23 10:59:05;;;;;;;15.73;9.48;;;;;;;24.45;52.53;93591.19;5065088;28;20112;-76
2022/08/23 11:01:52;;;;;;;17.65;9.80;;;;;;;24.47;54.47;93599.72;5064880;28;20032;-78
2022/08/23 11:04:38;;;;;;;17.42;9.95;;;;;;;24.47;51.93;93588.81;5064017;28;20017;-77
2022/08/23 11:07:20;;;;;;;14.85;9.05;;;;;;;24.52;53.31;93597.31;5065271;28;20088;-78
2022/08/23 11:09:53;;;;;;;18.65;10.20;;;;;;;24.61;55.65;93605.00;5065236;28;20021;-77
2022/08/23 11:12:26;;;;;;;15.73;9.18;;;;;;;24.68;53.24;93595.97;5065242;28;20013;-78
2022/08/23 11:14:55;;;;;;;13.43;9.23;;;;;;;24.74;57.69;93600.53;5065076;28;20035;-77
2022/08/23 11:17:57;;;;;;;21.55;10.73;;;;;;;24.65;59.16;93604.94;5065131;28;20021;-78
2022/08/23 11:20:53;;;;;;;16.45;9.80;;;;;;;24.66;58.39;93598.34;5061911;28;20151;-77
2022/08/23 11:23:42;;;;;;;18.55;10.27;;;;;;;24.59;60.21;93591.78;5065323;28;20032;-78
2022/08/23 11:26:34;;;;;;;18.85;9.45;;;;;;;24.58;59.33;93592.97;5065188;28;20021;-79
2022/08/23 11:29:05;;;;;;;;;;;;;;;24.54;60.23;93608.59;5065033;28;20028;-82
2022/08/23 11:31:34;;;;;;;17.33;9.38;;;;;;;24.56;58.27;93603.50;5063629;28;19939;-82
2022/08/23 11:34:06;;;;;;;14.68;10.23;;;;;;;24.67;58.68;93594.41;5064827;28;20258;-81
2022/08/23 11:36:32;;;;;;;18.67;9.60;;;;;;;24.70;54.42;93588.16;5064886;28;20047;-81
2022/08/23 11:39:00;;;;;;;15.30;9.55;;;;;;;24.68;60.31;93587.78;5064952;28;20454;-81
2022/08/23 11:41:29;;;;;;;15.88;9.80;;;;;;;24.71;57.59;93592.41;5064805;28;20196;-80